Time;durP1;ratioP1;P1;durP2;ratioP2;P2;SDS_P1;SDS_P2;PMS_P1;PMS_P2;Temp;Humidity;BMP_temperature;BMP_pressure;BME280_temperature;BME280_humidity;BME280_pressure;Samples;Min_cycle;Max_cycle;Signal;HPM_P1;HPM_P2
2023/01/08 00:01:06;;;;;;;145.73;17.38;;;;;;;-0.63;100.00;93475.97;4987003;28;20484;-65
2023/01/08 00:03:34;;;;;;;68.28;19.67;;;;;;;-0.50;100.00;93463.91;5009534;28;20054;-65
2023/01/08 00:06:03;;;;;;;59.35;20.15;;;;;;;-0.41;100.00;93469.84;4989014;28;20104;-65
2023/01/08 00:08:30;;;;;;;72.88;20.77;;;;;;;-0.31;100.00;93471.19;4988300;28;20046;-65
2023/01/08 00:10:57;;;;;;;100.47;16.65;;;;;;;-0.58;100.00;93467.59;4986774;28;20399;-65
2023/01/08 00:13:24;;;;;;;96.43;19.58;;;;;;;-0.84;100.00;93460.16;5005972;28;20517;-65
2023/01/08 00:15:51;;;;;;;69.32;16.23;;;;;;;-0.85;100.00;93445.88;5010050;28;20058;-65
2023/01/08 00:18:18;;;;;;;37.90;15.18;;;;;;;-0.82;100.00;93444.41;5005784;28;20407;-64
2023/01/08 00:20:47;;;;;;;44.13;15.48;;;;;;;-0.72;100.00;93443.06;4989836;28;20171;-65
2023/01/08 00:23:16;;;;;;;42.50;15.93;;;;;;;-0.61;100.00;93449.44;4990664;28;20043;-65
2023/01/08 00:25:43;;;;;;;72.43;16.13;;;;;;;-0.60;100.00;93440.22;4986759;28;20416;-65
2023/01/08 00:28:10;;;;;;;77.18;16.65;;;;;;;-0.85;100.00;93437.03;4996033;28;20444;-65
2023/01/08 00:30:37;;;;;;;72.60;15.77;;;;;;;-0.87;100.00;93428.53;4990204;28;20068;-65
2023/01/08 00:33:03;;;;;;;84.10;15.02;;;;;;;-0.94;100.00;93418.41;4990199;28;20054;-65
2023/01/08 00:35:30;;;;;;;70.97;15.50;;;;;;;-0.88;100.00;93427.75;4987998;28;20038;-65
2023/01/08 00:37:57;;;;;;;87.32;15.60;;;;;;;-0.82;100.00;93428.25;4969349;28;20156;-65
2023/01/08 00:40:24;;;;;;;60.15;15.70;;;;;;;-0.67;100.00;93415.81;4989432;28;20142;-65
2023/01/08 00:42:50;;;;;;;138.18;20.45;;;;;;;-0.99;100.00;93410.59;5006960;28;20041;-65
2023/01/08 00:45:17;;;;;;;90.15;17.13;;;;;;;-1.15;100.00;93409.88;5009530;28;20057;-65
2023/01/08 00:47:44;;;;;;;124.87;16.33;;;;;;;-1.15;100.00;93412.59;4996139;28;20064;-65
2023/01/08 00:50:11;;;;;;;43.88;15.10;;;;;;;-1.04;100.00;93406.28;5007140;28;20046;-65
2023/01/08 00:52:38;;;;;;;58.33;15.13;;;;;;;-0.89;100.00;93396.56;4989641;28;20609;-65
2023/01/08 00:55:05;;;;;;;46.92;16.70;;;;;;;-0.79;100.00;93395.19;4989679;28;20048;-65
2023/01/08 00:57:36;;;;;;;77.65;17.38;;;;;;;-0.81;100.00;93389.41;4989094;28;20053;-65
2023/01/08 01:00:05;;;;;;;61.30;14.80;;;;;;;-0.76;100.00;93385.66;4989753;28;20412;-65
2023/01/08 01:02:34;;;;;;;87.28;14.65;;;;;;;-0.75;100.00;93373.72;4989619;28;20046;-64
2023/01/08 01:05:01;;;;;;;114.05;14.63;;;;;;;-0.97;100.00;93381.41;4989437;28;20054;-64
2023/01/08 01:07:27;;;;;;;67.30;14.85;;;;;;;-0.92;100.00;93391.91;4989545;28;20389;-64
2023/01/08 01:09:54;;;;;;;44.80;13.55;;;;;;;-0.82;100.00;93391.31;4989985;28;20561;-65
2023/01/08 01:12:21;;;;;;;58.13;13.83;;;;;;;-0.87;100.00;93386.19;4988936;28;20046;-64
2023/01/08 01:14:47;;;;;;;66.35;13.38;;;;;;;-0.99;100.00;93382.88;5003999;28;20108;-64
2023/01/08 01:17:14;;;;;;;59.63;13.55;;;;;;;-0.98;100.00;93385.25;4989556;28;20124;-65
2023/01/08 01:19:41;;;;;;;44.70;12.88;;;;;;;-1.07;100.00;93390.81;4985651;28;20041;-65
2023/01/08 01:22:08;;;;;;;62.50;13.05;;;;;;;-1.03;100.00;93394.38;4988244;28;20046;-65
2023/01/08 01:24:35;;;;;;;48.55;13.18;;;;;;;-0.90;100.00;93389.63;4990509;28;20042;-65
2023/01/08 01:27:01;;;;;;;73.88;13.68;;;;;;;-0.85;100.00;93386.63;5013014;28;20552;-66
2023/01/08 01:29:28;;;;;;;35.40;12.70;;;;;;;-0.89;100.00;93393.84;5013244;28;20050;-65
2023/01/08 01:31:55;;;;;;;31.80;13.07;;;;;;;-0.79;100.00;93395.19;5013167;28;20063;-65
2023/01/08 01:34:21;;;;;;;48.22;12.57;;;;;;;-0.86;100.00;93393.16;5012670;28;20042;-64
2023/01/08 01:36:48;;;;;;;84.93;14.27;;;;;;;-1.10;100.00;93402.31;5011476;28;20060;-65
2023/01/08 01:39:15;;;;;;;29.88;12.43;;;;;;;-0.97;100.00;93394.84;5012400;28;20053;-64
2023/01/08 01:41:44;;;;;;;32.67;12.75;;;;;;;-0.90;100.00;93397.69;5012675;28;20057;-65
2023/01/08 01:44:32;;;;;;;26.98;11.77;;;;;;;-0.92;100.00;93409.97;5012615;28;20049;-65
2023/01/08 01:47:02;;;;;;;28.67;12.23;;;;;;;-0.80;100.00;93404.44;5004225;28;20064;-63
2023/01/08 01:49:29;;;;;;;33.07;11.73;;;;;;;-0.85;100.00;93404.72;4988744;28;20050;-65
2023/01/08 01:52:01;;;;;;;28.15;11.75;;;;;;;-0.97;100.00;93404.88;4988333;28;20104;-66
2023/01/08 01:54:30;;;;;;;28.45;11.35;;;;;;;-1.08;100.00;93397.34;4982327;28;20581;-64
2023/01/08 01:56:59;;;;;;;32.80;11.55;;;;;;;-1.14;100.00;93400.69;4993345;28;20056;-64
2023/01/08 01:59:26;;;;;;;28.38;12.15;;;;;;;-0.99;100.00;93380.97;4987409;28;20039;-64
2023/01/08 02:01:55;;;;;;;28.08;11.10;;;;;;;-0.94;100.00;93379.94;5007894;28;20049;-64
2023/01/08 02:04:21;;;;;;;57.22;22.70;;;;;;;-0.87;100.00;93375.44;5011112;28;20099;-66
2023/01/08 02:07:07;;;;;;;28.00;12.40;;;;;;;-1.07;100.00;93374.66;5012270;28;20411;-63
2023/01/08 02:10:04;;;;;;;31.52;11.40;;;;;;;-1.05;100.00;93375.13;5011430;28;20814;-64
2023/01/08 02:12:49;;;;;;;29.08;11.65;;;;;;;-1.19;100.00;93376.72;5007396;28;20235;-64
2023/01/08 02:15:26;;;;;;;23.58;10.23;;;;;;;-1.01;100.00;93369.78;4992486;28;20139;-64
2023/01/08 02:18:17;;;;;;;27.67;11.35;;;;;;;-1.07;100.00;93360.44;4989062;28;20054;-64
2023/01/08 02:20:49;;;;;;;25.98;11.25;;;;;;;-0.98;100.00;93355.63;4990199;28;20050;-65
2023/01/08 02:23:26;;;;;;;27.50;11.35;;;;;;;-0.98;100.00;93344.84;4985781;28;20054;-65
2023/01/08 02:26:05;;;;;;;25.52;12.02;;;;;;;-0.83;100.00;93327.00;4986444;28;20046;-65
2023/01/08 02:28:38;;;;;;;27.47;10.97;;;;;;;-0.85;100.00;93327.38;4991374;28;20042;-65
2023/01/08 02:31:06;;;;;;;26.80;11.38;;;;;;;-0.84;100.00;93323.53;4986718;28;20073;-65
2023/01/08 02:33:33;;;;;;;30.13;11.90;;;;;;;-0.79;100.00;93329.78;5001007;28;20057;-65
2023/01/08 02:36:12;;;;;;;26.50;11.35;;;;;;;-0.76;100.00;93319.06;4978937;28;20508;-65
2023/01/08 02:38:49;;;;;;;26.95;11.15;;;;;;;-0.70;100.00;93316.88;4991597;28;20046;-64
2023/01/08 02:41:18;;;;;;;28.50;11.98;;;;;;;-0.71;100.00;93324.16;4992591;28;20050;-64
2023/01/08 02:43:48;;;;;;;24.95;11.30;;;;;;;-0.62;100.00;93319.31;4992068;28;20047;-64
2023/01/08 02:46:33;;;;;;;35.55;14.88;;;;;;;-0.56;100.00;93314.41;4991957;28;20104;-64
2023/01/08 02:49:06;;;;;;;36.08;14.13;;;;;;;-1.01;100.00;93311.31;4985750;28;20047;-64
2023/01/08 02:51:40;;;;;;;33.03;12.65;;;;;;;-0.75;100.00;93298.28;5004489;28;20447;-64
2023/01/08 02:54:13;;;;;;;27.48;12.13;;;;;;;-0.69;100.00;93299.53;5011309;28;20044;-64
2023/01/08 02:56:47;;;;;;;27.35;11.55;;;;;;;-0.58;100.00;93297.03;4996569;28;20118;-64
2023/01/08 02:59:17;;;;;;;27.17;11.88;;;;;;;-0.51;100.00;93299.84;5008221;28;20052;-65
2023/01/08 03:01:45;;;;;;;25.20;11.60;;;;;;;-0.79;100.00;93309.00;5001192;28;20052;-65
2023/01/08 03:04:20;;;;;;;25.25;11.90;;;;;;;-0.96;100.00;93309.47;5008124;28;20038;-65
2023/01/08 03:06:48;;;;;;;29.35;12.25;;;;;;;-1.03;100.00;93292.06;5011427;28;20046;-65
2023/01/08 03:09:16;;;;;;;26.98;11.52;;;;;;;-0.89;100.00;93296.13;4988763;28;20046;-65
2023/01/08 03:12:06;;;;;;;25.92;12.20;;;;;;;-0.81;100.00;93287.78;5002201;28;20050;-64
2023/01/08 03:14:42;;;;;;;25.10;11.40;;;;;;;-0.67;100.00;93281.09;5010268;28;20077;-64
2023/01/08 03:17:47;;;;;;;26.00;10.80;;;;;;;-0.60;100.00;93283.94;5010818;28;20038;-64
2023/01/08 03:20:17;;;;;;;25.30;11.10;;;;;;;-0.54;100.00;93281.69;4992437;28;20059;-65
2023/01/08 03:22:48;;;;;;;25.52;10.93;;;;;;;-0.88;100.00;93273.44;5000111;28;20386;-64
2023/01/08 03:25:18;;;;;;;25.50;11.25;;;;;;;-0.63;100.00;93279.25;5005622;28;20086;-64
2023/01/08 03:27:49;;;;;;;24.75;11.77;;;;;;;-0.49;100.00;93270.59;5004978;28;20053;-64
2023/01/08 03:30:17;;;;;;;25.80;11.73;;;;;;;-0.44;100.00;93262.22;4985651;28;20487;-65
2023/01/08 03:32:46;;;;;;;25.08;11.63;;;;;;;-0.51;100.00;93260.19;4991181;28;20042;-64
2023/01/08 03:35:18;;;;;;;24.83;10.88;;;;;;;-0.59;100.00;93249.66;4988715;28;20541;-65
2023/01/08 03:37:50;;;;;;;25.33;11.60;;;;;;;-0.86;100.00;93249.63;4990580;28;20042;-65
2023/01/08 03:40:35;;;;;;;24.38;11.23;;;;;;;-0.79;100.00;93251.66;4991596;28;20447;-65
2023/01/08 03:43:02;;;;;;;28.90;12.05;;;;;;;-0.83;100.00;93246.97;4986873;28;20052;-64
2023/01/08 03:45:31;;;;;;;27.98;11.95;;;;;;;-0.78;100.00;93247.84;4990963;28;20046;-65
2023/01/08 03:47:59;;;;;;;26.92;11.77;;;;;;;-0.79;100.00;93252.41;4985176;28;20059;-64
2023/01/08 03:50:29;;;;;;;25.17;10.95;;;;;;;-0.78;100.00;93264.78;4983454;28;20602;-65
2023/01/08 03:52:56;;;;;;;38.75;16.02;;;;;;;-0.87;100.00;93270.38;4991017;28;20053;-65
2023/01/08 03:55:26;;;;;;;25.25;11.80;;;;;;;-0.93;100.00;93269.13;4990129;28;20838;-65
2023/01/08 03:57:52;;;;;;;26.45;11.40;;;;;;;-0.94;100.00;93277.56;4989037;28;20042;-65
2023/01/08 04:00:19;;;;;;;25.58;12.00;;;;;;;-0.77;100.00;93290.56;4979603;28;20088;-65
2023/01/08 04:02:46;;;;;;;25.52;11.75;;;;;;;-0.71;100.00;93293.72;4991808;28;20038;-64
2023/01/08 04:05:12;;;;;;;23.92;10.85;;;;;;;-0.76;100.00;93283.28;5008880;28;20052;-65
2023/01/08 04:07:39;;;;;;;23.83;10.75;;;;;;;-0.79;100.00;93284.75;5010369;28;20398;-65
2023/01/08 04:10:06;;;;;;;27.17;11.55;;;;;;;-0.84;100.00;93277.75;5009977;28;20406;-65
2023/01/08 04:12:33;;;;;;;25.48;11.40;;;;;;;-0.92;100.00;93273.38;5010224;28;20054;-65
2023/01/08 04:14:59;;;;;;;25.30;12.00;;;;;;;-0.88;100.00;93276.13;5009763;28;20457;-64
2023/01/08 04:17:26;;;;;;;26.98;11.90;;;;;;;-0.75;100.00;93266.72;5010382;28;20488;-65
2023/01/08 04:19:53;;;;;;;25.00;11.15;;;;;;;-0.73;100.00;93255.59;5009627;28;20612;-65
2023/01/08 04:22:19;;;;;;;23.52;10.93;;;;;;;-0.59;100.00;93250.44;5009765;28;20065;-65
2023/01/08 04:24:46;;;;;;;25.15;11.13;;;;;;;-0.66;100.00;93247.66;5009800;28;20042;-65
2023/01/08 04:27:13;;;;;;;24.70;10.63;;;;;;;-0.82;100.00;93253.94;5006551;28;20037;-64
2023/01/08 04:29:39;;;;;;;24.83;11.25;;;;;;;-0.77;100.00;93265.53;4983815;28;20058;-65
2023/01/08 04:32:06;;;;;;;26.17;11.05;;;;;;;-0.70;100.00;93274.53;5008556;28;20478;-64
2023/01/08 04:34:33;;;;;;;23.27;10.63;;;;;;;-0.62;100.00;93283.50;5010030;28;20054;-65
2023/01/08 04:37:00;;;;;;;25.70;11.13;;;;;;;-0.62;100.00;93294.28;5008158;28;20049;-64
2023/01/08 04:39:27;;;;;;;25.10;10.82;;;;;;;-0.53;100.00;93296.72;4972208;28;20047;-65
2023/01/08 04:41:54;;;;;;;25.60;11.30;;;;;;;-0.44;100.00;93291.88;4983685;28;20107;-65
2023/01/08 04:44:21;;;;;;;23.65;10.50;;;;;;;-0.51;100.00;93289.06;5009938;28;20104;-65
2023/01/08 04:46:47;;;;;;;25.48;11.50;;;;;;;-0.47;100.00;93295.28;5009893;28;20072;-64
2023/01/08 04:49:14;;;;;;;25.35;11.40;;;;;;;-0.33;100.00;93275.88;5008231;28;20095;-64
2023/01/08 04:51:41;;;;;;;24.17;10.43;;;;;;;-0.30;100.00;93250.84;5009740;28;20491;-65
2023/01/08 04:54:07;;;;;;;24.50;10.32;;;;;;;-0.31;100.00;93262.81;5009333;28;20054;-65
2023/01/08 04:56:34;;;;;;;27.67;11.90;;;;;;;-0.29;100.00;93250.50;5005002;28;20450;-65
2023/01/08 04:59:01;;;;;;;23.97;10.87;;;;;;;-0.13;100.00;93253.03;4989515;28;20120;-64
2023/01/08 05:01:28;;;;;;;23.05;9.75;;;;;;;-0.06;100.00;93246.97;4992285;28;20050;-65
2023/01/08 05:04:00;;;;;;;24.35;11.63;;;;;;;-0.23;100.00;93234.81;5002941;28;20049;-64
2023/01/08 05:06:28;;;;;;;25.77;11.10;;;;;;;-0.23;100.00;93238.25;5012919;28;20107;-65
2023/01/08 05:08:56;;;;;;;25.45;11.70;;;;;;;-0.22;100.00;93249.84;5005751;28;20076;-65
2023/01/08 05:11:24;;;;;;;24.17;10.93;;;;;;;-0.33;100.00;93260.47;4991110;28;20100;-64
2023/01/08 05:13:51;;;;;;;23.52;11.43;;;;;;;-0.28;100.00;93253.97;4983064;28;20054;-64
2023/01/08 05:16:18;;;;;;;23.30;10.95;;;;;;;-0.25;100.00;93250.56;4989590;28;20073;-65
2023/01/08 05:18:45;;;;;;;24.45;10.98;;;;;;;-0.28;100.00;93260.16;4993369;28;20054;-64
2023/01/08 05:21:12;;;;;;;28.08;12.65;;;;;;;-0.36;100.00;93260.41;4982899;28;20117;-64
2023/01/08 05:23:42;;;;;;;33.45;14.77;;;;;;;-0.17;100.00;93246.06;4992152;28;20046;-65
2023/01/08 05:26:09;;;;;;;31.20;13.43;;;;;;;0.01;100.00;93254.41;4998098;28;20046;-65
2023/01/08 05:28:36;;;;;;;27.15;11.05;;;;;;;0.07;100.00;93256.41;4991544;28;20042;-64
2023/01/08 05:31:02;;;;;;;27.85;13.05;;;;;;;-0.11;100.00;93241.91;5002062;28;20908;-64
2023/01/08 05:33:30;;;;;;;27.75;12.30;;;;;;;0.11;100.00;93246.44;5008867;28;20042;-65
2023/01/08 05:35:56;;;;;;;26.58;12.40;;;;;;;0.18;100.00;93245.75;4988232;28;20111;-65
2023/01/08 05:38:23;;;;;;;27.88;12.57;;;;;;;0.02;100.00;93242.44;5009049;28;20046;-64
2023/01/08 05:40:53;;;;;;;25.48;12.55;;;;;;;0.11;100.00;93230.25;4994089;28;20047;-64
2023/01/08 05:43:20;;;;;;;28.38;13.07;;;;;;;0.34;100.00;93248.25;4990463;28;20042;-64
2023/01/08 05:45:47;;;;;;;25.33;11.98;;;;;;;0.04;100.00;93265.25;4988266;28;20056;-64
2023/01/08 05:48:13;;;;;;;26.13;11.17;;;;;;;-0.01;100.00;93257.44;4992724;28;20095;-64
2023/01/08 05:50:40;;;;;;;25.85;11.30;;;;;;;-0.06;100.00;93247.75;4993303;28;20100;-65
2023/01/08 05:53:08;;;;;;;25.65;11.27;;;;;;;0.11;100.00;93241.03;4988753;28;20086;-64
2023/01/08 05:55:35;;;;;;;23.73;11.05;;;;;;;0.13;100.00;93251.47;4993371;28;20042;-65
2023/01/08 05:58:04;;;;;;;27.40;12.38;;;;;;;0.17;100.00;93233.41;4992232;28;20054;-64
2023/01/08 06:00:32;;;;;;;23.93;10.53;;;;;;;0.27;100.00;93232.75;4992759;28;20066;-65
2023/01/08 06:02:59;;;;;;;29.20;12.77;;;;;;;0.06;100.00;93240.56;4991018;28;20487;-63
2023/01/08 06:05:26;;;;;;;27.15;11.50;;;;;;;0.09;100.00;93245.25;5000929;28;20103;-65
2023/01/08 06:07:52;;;;;;;29.77;12.55;;;;;;;0.15;100.00;93249.19;4997479;28;20049;-65
2023/01/08 06:10:19;;;;;;;28.27;12.10;;;;;;;0.19;100.00;93252.72;4992291;28;20462;-64
2023/01/08 06:12:46;;;;;;;28.57;12.70;;;;;;;0.39;100.00;93256.81;4983279;28;20055;-64
2023/01/08 06:15:13;;;;;;;26.52;12.00;;;;;;;0.63;100.00;93251.31;5009706;28;20449;-64
2023/01/08 06:17:39;;;;;;;19.55;9.88;;;;;;;0.56;100.00;93270.88;5011065;28;20050;-65
2023/01/08 06:20:07;;;;;;;22.88;10.68;;;;;;;0.58;100.00;93242.41;5000329;28;20054;-64
2023/01/08 06:22:34;;;;;;;24.40;11.55;;;;;;;0.72;100.00;93262.59;4982146;28;20039;-65
2023/01/08 06:25:01;;;;;;;25.30;11.23;;;;;;;0.75;100.00;93265.34;4986147;28;20070;-64
2023/01/08 06:27:30;;;;;;;21.27;10.38;;;;;;;0.75;100.00;93254.53;4992871;28;20104;-65
2023/01/08 06:29:57;;;;;;;23.90;10.95;;;;;;;0.78;100.00;93269.22;4990830;28;20054;-65
2023/01/08 06:32:23;;;;;;;25.15;11.40;;;;;;;0.79;100.00;93258.03;4979371;28;20038;-64
2023/01/08 06:34:50;;;;;;;22.17;10.88;;;;;;;0.91;100.00;93264.34;5007174;28;20120;-65
2023/01/08 06:37:17;;;;;;;23.02;11.43;;;;;;;0.85;100.00;93260.44;4979418;28;20049;-65
2023/01/08 06:39:43;;;;;;;27.17;10.98;;;;;;;1.00;100.00;93245.91;4986494;28;20046;-65
2023/01/08 06:42:10;;;;;;;19.65;9.77;;;;;;;1.19;100.00;93250.34;4991488;28;20411;-64
2023/01/08 06:44:37;;;;;;;23.98;11.15;;;;;;;1.07;100.00;93251.38;4985424;28;20053;-65
2023/01/08 06:47:03;;;;;;;20.92;10.75;;;;;;;1.16;100.00;93241.03;4986847;28;20068;-64
2023/01/08 06:49:30;;;;;;;19.90;9.77;;;;;;;1.29;100.00;93238.06;4992163;28;20080;-65
2023/01/08 06:51:57;;;;;;;21.73;10.30;;;;;;;1.33;100.00;93238.88;4991976;28;20046;-65
2023/01/08 06:54:23;;;;;;;19.70;9.30;;;;;;;1.48;100.00;93247.88;4991867;28;20593;-65
2023/01/08 06:56:50;;;;;;;17.98;9.55;;;;;;;1.57;100.00;93238.31;4990563;28;20516;-65
2023/01/08 06:59:20;;;;;;;19.88;10.10;;;;;;;1.66;100.00;93231.78;4990361;28;20541;-65
2023/01/08 07:01:47;;;;;;;17.20;8.60;;;;;;;1.77;100.00;93238.03;4991343;28;20404;-65
2023/01/08 07:04:14;;;;;;;16.33;8.82;;;;;;;1.79;100.00;93233.03;4984855;28;20069;-65
2023/01/08 07:06:40;;;;;;;18.45;8.68;;;;;;;1.91;100.00;93238.16;5011238;28;20056;-65
2023/01/08 07:09:11;;;;;;;19.10;9.57;;;;;;;1.86;100.00;93237.72;5008228;28;20495;-65
2023/01/08 07:11:39;;;;;;;17.27;9.98;;;;;;;1.77;100.00;93238.03;4981035;28;20042;-65
2023/01/08 07:14:05;;;;;;;18.73;9.53;;;;;;;1.80;100.00;93232.66;4989177;28;20100;-65
2023/01/08 07:16:32;;;;;;;18.63;9.25;;;;;;;1.91;100.00;93240.06;4991952;28;20046;-65
2023/01/08 07:18:59;;;;;;;22.58;10.73;;;;;;;1.90;100.00;93233.13;4991448;28;20108;-65
2023/01/08 07:21:26;;;;;;;20.90;10.30;;;;;;;1.95;100.00;93236.25;5003383;28;21493;-65
2023/01/08 07:23:52;;;;;;;19.95;9.70;;;;;;;2.13;100.00;93239.06;5010752;28;20042;-65
2023/01/08 07:26:19;;;;;;;18.53;8.83;;;;;;;2.25;100.00;93235.22;5001299;28;20558;-65
2023/01/08 07:28:46;;;;;;;20.63;10.20;;;;;;;2.32;100.00;93229.84;5004434;28;20054;-65
2023/01/08 07:31:12;;;;;;;17.90;9.00;;;;;;;2.43;100.00;93234.53;5003030;28;20052;-65
2023/01/08 07:33:39;;;;;;;13.27;7.30;;;;;;;2.48;100.00;93234.19;5009684;28;20056;-65
2023/01/08 07:36:06;;;;;;;14.98;7.95;;;;;;;2.51;100.00;93247.72;4981710;28;20051;-65
2023/01/08 07:38:33;;;;;;;19.47;9.33;;;;;;;2.37;100.00;93245.75;4989274;28;20096;-65
2023/01/08 07:41:00;;;;;;;19.75;10.30;;;;;;;2.61;100.00;93251.66;4980395;28;20056;-64
2023/01/08 07:43:28;;;;;;;26.20;13.25;;;;;;;2.48;100.00;93250.44;4991192;28;20038;-65
2023/01/08 07:45:56;;;;;;;27.98;14.18;;;;;;;2.32;100.00;93248.81;4990733;28;20051;-65
2023/01/08 07:48:23;;;;;;;27.88;14.00;;;;;;;2.32;100.00;93251.53;4990439;28;20038;-65
2023/01/08 07:50:50;;;;;;;27.53;14.27;;;;;;;2.52;100.00;93246.59;4989648;28;20051;-65
2023/01/08 07:53:16;;;;;;;44.25;21.52;;;;;;;2.62;100.00;93255.13;4980666;28;20046;-65
2023/01/08 07:55:43;;;;;;;45.20;23.17;;;;;;;2.73;100.00;93239.69;4992072;28;20389;-65
2023/01/08 07:58:13;;;;;;;37.67;18.95;;;;;;;2.77;100.00;93237.78;5008382;28;20054;-65
2023/01/08 08:00:40;;;;;;;25.02;13.10;;;;;;;2.87;100.00;93242.44;4989401;28;20052;-65
2023/01/08 08:03:11;;;;;;;25.07;13.30;;;;;;;2.77;100.00;93233.13;4987783;28;20038;-65
2023/01/08 08:05:38;;;;;;;27.35;14.30;;;;;;;2.84;100.00;93245.13;4997008;28;20050;-65
2023/01/08 08:08:09;;;;;;;24.05;11.85;;;;;;;2.83;100.00;93246.31;4990229;28;20052;-65
2023/01/08 08:10:37;;;;;;;26.70;13.65;;;;;;;2.79;100.00;93244.34;4989460;28;20057;-65
2023/01/08 08:13:04;;;;;;;24.13;12.77;;;;;;;2.90;100.00;93241.69;4992744;28;20048;-65
2023/01/08 08:15:32;;;;;;;18.13;9.77;;;;;;;2.97;100.00;93240.94;4990129;28;20400;-65
2023/01/08 08:17:58;;;;;;;19.08;10.15;;;;;;;3.11;100.00;93246.38;4991213;28;20052;-65
2023/01/08 08:20:26;;;;;;;16.27;8.13;;;;;;;3.20;100.00;93235.94;4985745;28;20827;-65
2023/01/08 08:23:00;;;;;;;14.80;7.43;;;;;;;3.18;100.00;93240.97;4990004;28;20050;-65
2023/01/08 08:25:27;;;;;;;16.40;9.18;;;;;;;3.22;100.00;93242.91;4989500;28;21871;-65
2023/01/08 08:27:58;;;;;;;15.17;7.80;;;;;;;3.35;100.00;93247.56;4994450;28;20119;-65
2023/01/08 08:30:26;;;;;;;12.43;6.35;;;;;;;3.38;100.00;93237.88;4987386;28;20068;-65
2023/01/08 08:32:53;;;;;;;13.05;6.60;;;;;;;3.43;100.00;93231.31;4979752;28;20484;-65
2023/01/08 08:35:20;;;;;;;12.82;6.95;;;;;;;3.51;100.00;93230.94;4989505;28;20128;-65
2023/01/08 08:37:47;;;;;;;13.60;7.65;;;;;;;3.52;100.00;93228.97;4988131;28;20039;-65
2023/01/08 08:40:14;;;;;;;11.93;6.73;;;;;;;3.63;100.00;93227.06;4989675;28;20046;-65
2023/01/08 08:42:41;;;;;;;11.20;6.07;;;;;;;3.76;100.00;93224.72;4986902;28;20120;-67
2023/01/08 08:45:08;;;;;;;10.07;5.55;;;;;;;3.74;100.00;93225.13;5005192;28;20084;-67
2023/01/08 08:47:34;;;;;;;13.05;7.00;;;;;;;3.74;100.00;93225.13;5009602;28;20566;-66
2023/01/08 08:50:02;;;;;;;11.18;6.07;;;;;;;3.86;100.00;93231.31;5009439;28;20060;-68
2023/01/08 08:52:30;;;;;;;10.87;5.80;;;;;;;3.88;100.00;93220.81;5004584;28;20124;-67
2023/01/08 08:54:57;;;;;;;10.48;5.80;;;;;;;3.91;100.00;93225.50;4989921;28;20050;-67
2023/01/08 08:57:24;;;;;;;9.85;5.72;;;;;;;3.97;100.00;93227.41;4980573;28;20049;-67
2023/01/08 08:59:51;;;;;;;8.02;4.25;;;;;;;4.03;100.00;93229.75;4986299;28;20040;-67
2023/01/08 09:02:18;;;;;;;8.55;4.43;;;;;;;4.06;100.00;93228.94;4987543;28;20042;-67
2023/01/08 09:04:45;;;;;;;9.77;5.40;;;;;;;4.07;100.00;93230.50;4977517;28;20038;-67
2023/01/08 09:07:12;;;;;;;9.23;5.20;;;;;;;4.19;100.00;93235.53;4989338;28;20060;-67
2023/01/08 09:09:39;;;;;;;9.48;5.03;;;;;;;4.26;100.00;93240.16;4973528;28;20054;-67
2023/01/08 09:12:06;;;;;;;14.48;6.95;;;;;;;4.19;100.00;93244.44;4980431;28;20042;-68
2023/01/08 09:14:33;;;;;;;10.55;5.20;;;;;;;4.27;100.00;93236.28;4989660;28;20065;-66
2023/01/08 09:17:00;;;;;;;9.70;5.13;;;;;;;4.39;100.00;93238.59;4989395;28;20703;-65
2023/01/08 09:19:26;;;;;;;7.80;3.92;;;;;;;4.41;100.00;93238.97;4993082;28;20038;-66
2023/01/08 09:21:53;;;;;;;8.38;4.22;;;;;;;4.45;100.00;93238.94;4983468;28;20051;-66
2023/01/08 09:24:20;;;;;;;7.00;3.28;;;;;;;4.48;100.00;93249.03;4980473;28;20050;-67
2023/01/08 09:26:46;;;;;;;7.05;3.40;;;;;;;4.50;100.00;93246.69;4983863;28;20047;-66
2023/01/08 09:29:13;;;;;;;6.40;3.10;;;;;;;4.56;100.00;93254.03;4979957;28;20169;-67
2023/01/08 09:31:40;;;;;;;5.13;2.40;;;;;;;4.67;100.00;93261.38;4989668;28;20057;-66
2023/01/08 09:34:06;;;;;;;7.13;3.35;;;;;;;4.67;100.00;93255.94;4989325;28;20115;-66
2023/01/08 09:36:33;;;;;;;6.45;3.20;;;;;;;4.69;100.00;93251.69;4985886;28;20078;-66
2023/01/08 09:39:00;;;;;;;8.55;3.95;;;;;;;4.66;100.00;93251.69;4984535;28;20068;-64
2023/01/08 09:41:30;;;;;;;6.43;3.17;;;;;;;4.61;100.00;93244.72;4987366;28;20431;-70
2023/01/08 09:43:59;;;;;;;6.03;3.00;;;;;;;4.63;100.00;93250.53;4999326;28;20049;-68
2023/01/08 09:46:27;;;;;;;6.30;2.97;;;;;;;4.68;100.00;93254.78;4984644;28;20414;-68
2023/01/08 09:48:58;;;;;;;7.45;3.03;;;;;;;4.68;100.00;93252.06;4990772;28;20039;-69
2023/01/08 09:51:34;;;;;;;8.55;4.13;;;;;;;4.58;100.00;93256.38;4992054;28;20608;-69
2023/01/08 09:54:01;;;;;;;15.77;6.77;;;;;;;4.56;100.00;93239.69;4992054;28;20084;-68
2023/01/08 09:56:29;;;;;;;11.27;5.10;;;;;;;4.57;100.00;93252.13;4993155;28;20076;-68
2023/01/08 09:59:00;;;;;;;9.93;4.65;;;;;;;4.57;100.00;93252.13;4995000;28;20128;-68
2023/01/08 10:01:37;;;;;;;13.13;5.50;;;;;;;4.59;100.00;93249.78;5011492;28;20931;-68
2023/01/08 10:04:16;;;;;;;14.45;5.68;;;;;;;4.63;100.00;93247.03;5011940;28;20049;-68
2023/01/08 10:06:54;;;;;;;13.77;5.70;;;;;;;4.62;100.00;93250.94;5012072;28;20068;-68
2023/01/08 10:09:25;;;;;;;25.20;9.55;;;;;;;4.71;100.00;93251.25;5011452;28;20076;-68
2023/01/08 10:11:55;;;;;;;9.77;4.93;;;;;;;4.76;100.00;93240.00;5012466;28;20053;-68
2023/01/08 10:14:25;;;;;;;11.27;5.65;;;;;;;4.72;100.00;93240.00;5011378;28;20096;-68
2023/01/08 10:17:02;;;;;;;18.27;8.23;;;;;;;4.73;100.00;93235.38;5002798;28;20042;-68
2023/01/08 10:19:28;;;;;;;14.80;5.93;;;;;;;4.76;100.00;93234.56;5011169;28;20391;-67
2023/01/08 10:21:56;;;;;;;9.35;3.40;;;;;;;4.85;100.00;93225.97;5011829;28;20072;-68
2023/01/08 10:24:34;;;;;;;7.18;3.22;;;;;;;4.91;100.00;93222.47;5011068;28;20053;-68
2023/01/08 10:27:27;;;;;;;12.52;4.95;;;;;;;4.96;100.00;93218.53;5011290;28;20041;-65
2023/01/08 10:30:04;;;;;;;5.30;2.80;;;;;;;5.05;100.00;93218.91;5025392;28;20402;-69
2023/01/08 10:32:35;;;;;;;8.47;3.80;;;;;;;5.12;100.00;93213.41;5011214;28;20625;-68
2023/01/08 10:35:05;;;;;;;6.10;3.03;;;;;;;5.21;100.00;93204.78;5011272;28;20046;-68
2023/01/08 10:37:38;;;;;;;5.68;2.72;;;;;;;5.19;100.00;93207.13;5011049;28;20038;-70
2023/01/08 10:40:28;;;;;;;5.80;2.67;;;;;;;5.17;100.00;93196.66;5010922;28;20052;-68
2023/01/08 10:42:57;;;;;;;12.35;5.32;;;;;;;5.29;100.00;93197.34;5011893;28;20037;-67
2023/01/08 10:45:26;;;;;;;11.43;5.50;;;;;;;5.30;100.00;93180.63;5010902;28;20038;-66
2023/01/08 10:47:59;;;;;;;10.38;4.13;;;;;;;5.31;100.00;93182.19;5006636;28;20104;-66
2023/01/08 10:50:31;;;;;;;11.30;5.07;;;;;;;5.50;100.00;93183.59;4984065;28;20813;-66
2023/01/08 10:53:04;;;;;;;8.93;4.20;;;;;;;5.46;100.00;93176.66;4985684;28;20100;-65
2023/01/08 10:55:36;;;;;;;6.95;3.47;;;;;;;5.46;100.00;93174.69;4984079;28;20206;-64
2023/01/08 10:58:08;;;;;;;8.27;3.90;;;;;;;5.42;100.00;93162.28;4982877;28;20054;-64
2023/01/08 11:00:36;;;;;;;6.55;3.28;;;;;;;5.35;100.00;93160.38;4991768;28;20070;-63
2023/01/08 11:03:05;;;;;;;6.55;3.55;;;;;;;5.48;100.00;93160.69;4991260;28;20050;-65
2023/01/08 11:05:35;;;;;;;6.00;3.22;;;;;;;5.59;100.00;93155.91;4991504;28;20049;-65
2023/01/08 11:08:05;;;;;;;5.85;3.22;;;;;;;5.59;100.00;93155.91;5008730;28;20041;-63
2023/01/08 11:10:35;;;;;;;5.97;3.10;;;;;;;5.58;100.00;93138.81;5011421;28;20053;-64
2023/01/08 11:13:05;;;;;;;5.03;2.80;;;;;;;5.58;100.00;93136.09;5010643;28;20445;-63
2023/01/08 11:15:37;;;;;;;4.70;2.50;;;;;;;5.68;100.00;93125.53;5011611;28;20096;-66
2023/01/08 11:18:20;;;;;;;5.68;2.50;;;;;;;5.52;100.00;93120.63;5010671;28;20041;-66
2023/01/08 11:20:48;;;;;;;5.95;3.20;;;;;;;5.50;100.00;93110.13;5010751;28;20050;-66
2023/01/08 11:23:22;;;;;;;4.20;2.37;;;;;;;5.58;100.00;93106.16;5010689;28;20050;-66
2023/01/08 11:26:05;;;;;;;4.45;2.30;;;;;;;5.48;100.00;93109.75;5011310;28;20123;-65